sensor_id;sensor_type;location;lat;lon;timestamp;temperature;humidity
76345;DHT22;65160;50.504;3.666;2022-11-15T00:00:03;11.06;96.69
76345;DHT22;65160;50.504;3.666;2022-11-15T00:02:29;11.07;96.60
76345;DHT22;65160;50.504;3.666;2022-11-15T00:04:54;11.10;96.59
76345;DHT22;65160;50.504;3.666;2022-11-15T00:07:20;11.07;96.73
76345;DHT22;65160;50.504;3.666;2022-11-15T00:09:45;11.12;96.79
76345;DHT22;65160;50.504;3.666;2022-11-15T00:12:11;11.13;96.71
76345;DHT22;65160;50.504;3.666;2022-11-15T00:14:36;11.16;96.63
76345;DHT22;65160;50.504;3.666;2022-11-15T00:17:02;11.17;96.61
76345;DHT22;65160;50.504;3.666;2022-11-15T00:19:27;11.15;96.66
76345;DHT22;65160;50.504;3.666;2022-11-15T00:21:52;11.13;96.77
76345;DHT22;65160;50.504;3.666;2022-11-15T00:24:18;11.13;96.72
76345;DHT22;65160;50.504;3.666;2022-11-15T00:26:43;11.15;96.77
76345;DHT22;65160;50.504;3.666;2022-11-15T00:29:09;11.16;96.66
76345;DHT22;65160;50.504;3.666;2022-11-15T00:31:34;11.13;96.80
76345;DHT22;65160;50.504;3.666;2022-11-15T00:33:59;11.20;96.65
76345;DHT22;65160;50.504;3.666;2022-11-15T00:36:25;11.22;96.61
76345;DHT22;65160;50.504;3.666;2022-11-15T00:38:50;11.19;96.56
76345;DHT22;65160;50.504;3.666;2022-11-15T00:41:16;11.24;96.46
76345;DHT22;65160;50.504;3.666;2022-11-15T00:43:41;11.26;96.47
76345;DHT22;65160;50.504;3.666;2022-11-15T00:46:09;11.28;96.45
76345;DHT22;65160;50.504;3.666;2022-11-15T00:48:35;11.28;96.59
76345;DHT22;65160;50.504;3.666;2022-11-15T00:51:00;11.20;97.14
76345;DHT22;65160;50.504;3.666;2022-11-15T00:53:26;11.13;97.34
76345;DHT22;65160;50.504;3.666;2022-11-15T00:55:52;11.13;97.47
76345;DHT22;65160;50.504;3.666;2022-11-15T00:58:18;11.09;97.75
76345;DHT22;65160;50.504;3.666;2022-11-15T01:00:43;11.07;97.79
76345;DHT22;65160;50.504;3.666;2022-11-15T01:03:08;11.10;97.77
76345;DHT22;65160;50.504;3.666;2022-11-15T01:05:37;11.10;97.73
76345;DHT22;65160;50.504;3.666;2022-11-15T01:08:02;11.12;97.64
76345;DHT22;65160;50.504;3.666;2022-11-15T01:10:28;11.10;97.59
76345;DHT22;65160;50.504;3.666;2022-11-15T01:12:53;11.05;97.60
76345;DHT22;65160;50.504;3.666;2022-11-15T01:15:19;11.03;97.72
76345;DHT22;65160;50.504;3.666;2022-11-15T01:17:44;10.99;97.71
76345;DHT22;65160;50.504;3.666;2022-11-15T01:20:10;11.00;97.70
76345;DHT22;65160;50.504;3.666;2022-11-15T01:22:35;11.00;97.59
76345;DHT22;65160;50.504;3.666;2022-11-15T01:25:01;11.00;97.58
76345;DHT22;65160;50.504;3.666;2022-11-15T01:27:26;10.97;97.50
76345;DHT22;65160;50.504;3.666;2022-11-15T01:29:51;10.96;97.41
76345;DHT22;65160;50.504;3.666;2022-11-15T01:32:17;10.95;97.32
76345;DHT22;65160;50.504;3.666;2022-11-15T01:34:42;10.96;97.21
76345;DHT22;65160;50.504;3.666;2022-11-15T01:37:08;10.96;97.13
76345;DHT22;65160;50.504;3.666;2022-11-15T01:39:34;10.96;96.86
76345;DHT22;65160;50.504;3.666;2022-11-15T01:41:59;10.96;96.93
76345;DHT22;65160;50.504;3.666;2022-11-15T01:47:02;10.89;96.93
76345;DHT22;65160;50.504;3.666;2022-11-15T01:49:30;10.92;96.78
76345;DHT22;65160;50.504;3.666;2022-11-15T01:51:58;10.88;96.73
76345;DHT22;65160;50.504;3.666;2022-11-15T01:54:24;10.93;96.63
76345;DHT22;65160;50.504;3.666;2022-11-15T01:56:59;10.89;96.24
76345;DHT22;65160;50.504;3.666;2022-11-15T01:59:27;10.86;96.23
76345;DHT22;65160;50.504;3.666;2022-11-15T02:01:53;10.92;96.05
76345;DHT22;65160;50.504;3.666;2022-11-15T02:04:23;10.95;95.61
76345;DHT22;65160;50.504;3.666;2022-11-15T02:06:50;10.93;95.53
76345;DHT22;65160;50.504;3.666;2022-11-15T02:09:16;10.89;95.59
76345;DHT22;65160;50.504;3.666;2022-11-15T02:11:43;10.88;95.59
76345;DHT22;65160;50.504;3.666;2022-11-15T02:14:09;10.86;95.60
76345;DHT22;65160;50.504;3.666;2022-11-15T02:16:48;10.80;95.85
76345;DHT22;65160;50.504;3.666;2022-11-15T02:21:48;10.83;95.50
76345;DHT22;65160;50.504;3.666;2022-11-15T02:32:52;10.79;95.05
76345;DHT22;65160;50.504;3.666;2022-11-15T02:35:45;10.78;94.85
76345;DHT22;65160;50.504;3.666;2022-11-15T02:39:07;10.78;94.74
76345;DHT22;65160;50.504;3.666;2022-11-15T02:41:53;10.76;94.46
76345;DHT22;65160;50.504;3.666;2022-11-15T02:44:25;10.78;94.56
76345;DHT22;65160;50.504;3.666;2022-11-15T02:46:56;10.76;94.54
76345;DHT22;65160;50.504;3.666;2022-11-15T02:49:47;10.71;94.27
76345;DHT22;65160;50.504;3.666;2022-11-15T02:52:18;10.71;94.36
76345;DHT22;65160;50.504;3.666;2022-11-15T02:54:59;10.71;94.08
76345;DHT22;65160;50.504;3.666;2022-11-15T03:00:10;10.64;94.04
76345;DHT22;65160;50.504;3.666;2022-11-15T03:11:03;10.59;93.78
76345;DHT22;65160;50.504;3.666;2022-11-15T03:16:37;10.44;94.36
76345;DHT22;65160;50.504;3.666;2022-11-15T03:21:41;10.29;94.76
76345;DHT22;65160;50.504;3.666;2022-11-15T03:24:07;10.23;95.00
76345;DHT22;65160;50.504;3.666;2022-11-15T03:26:35;10.20;95.03
76345;DHT22;65160;50.504;3.666;2022-11-15T03:29:13;10.16;95.19
76345;DHT22;65160;50.504;3.666;2022-11-15T03:31:44;10.14;95.19
76345;DHT22;65160;50.504;3.666;2022-11-15T03:34:35;10.12;95.22
76345;DHT22;65160;50.504;3.666;2022-11-15T03:37:02;10.04;95.33
76345;DHT22;65160;50.504;3.666;2022-11-15T03:39:28;10.02;95.27
76345;DHT22;65160;50.504;3.666;2022-11-15T03:44:36;9.99;95.35
76345;DHT22;65160;50.504;3.666;2022-11-15T03:47:16;9.93;95.35
76345;DHT22;65160;50.504;3.666;2022-11-15T03:49:47;9.90;95.47
76345;DHT22;65160;50.504;3.666;2022-11-15T03:52:18;9.82;95.57
76345;DHT22;65160;50.504;3.666;2022-11-15T03:54:53;9.76;95.76
76345;DHT22;65160;50.504;3.666;2022-11-15T03:57:19;9.71;95.86
76345;DHT22;65160;50.504;3.666;2022-11-15T03:59:44;9.68;95.91
76345;DHT22;65160;50.504;3.666;2022-11-15T04:02:11;9.71;95.95
76345;DHT22;65160;50.504;3.666;2022-11-15T04:04:36;9.65;95.87
76345;DHT22;65160;50.504;3.666;2022-11-15T04:07:02;9.59;96.00
76345;DHT22;65160;50.504;3.666;2022-11-15T04:09:27;9.59;96.07
76345;DHT22;65160;50.504;3.666;2022-11-15T04:11:53;9.47;96.24
76345;DHT22;65160;50.504;3.666;2022-11-15T04:14:18;9.44;96.37
76345;DHT22;65160;50.504;3.666;2022-11-15T04:16:43;9.41;96.63
76345;DHT22;65160;50.504;3.666;2022-11-15T04:19:09;9.42;96.56
76345;DHT22;65160;50.504;3.666;2022-11-15T04:21:53;9.35;96.72
76345;DHT22;65160;50.504;3.666;2022-11-15T04:24:36;9.31;96.73
76345;DHT22;65160;50.504;3.666;2022-11-15T04:27:02;9.31;96.91
76345;DHT22;65160;50.504;3.666;2022-11-15T04:29:27;9.32;96.83
76345;DHT22;65160;50.504;3.666;2022-11-15T04:32:03;9.26;96.77
76345;DHT22;65160;50.504;3.666;2022-11-15T04:34:29;9.28;96.88
76345;DHT22;65160;50.504;3.666;2022-11-15T04:36:54;9.32;96.86
76345;DHT22;65160;50.504;3.666;2022-11-15T04:39:42;9.45;96.56
76345;DHT22;65160;50.504;3.666;2022-11-15T04:42:08;9.51;96.38
76345;DHT22;65160;50.504;3.666;2022-11-15T04:44:34;9.54;96.29
76345;DHT22;65160;50.504;3.666;2022-11-15T04:46:59;9.52;96.51
76345;DHT22;65160;50.504;3.666;2022-11-15T04:49:25;9.62;96.17
76345;DHT22;65160;50.504;3.666;2022-11-15T04:51:50;9.66;95.98
76345;DHT22;65160;50.504;3.666;2022-11-15T04:54:16;9.65;95.80
76345;DHT22;65160;50.504;3.666;2022-11-15T04:56:42;9.62;95.72
76345;DHT22;65160;50.504;3.666;2022-11-15T04:59:07;9.61;95.76
76345;DHT22;65160;50.504;3.666;2022-11-15T05:01:32;9.62;95.51
76345;DHT22;65160;50.504;3.666;2022-11-15T05:03:58;9.66;95.06
76345;DHT22;65160;50.504;3.666;2022-11-15T05:06:42;9.65;95.04
76345;DHT22;65160;50.504;3.666;2022-11-15T05:09:07;9.58;94.99
76345;DHT22;65160;50.504;3.666;2022-11-15T05:11:33;9.57;94.88
76345;DHT22;65160;50.504;3.666;2022-11-15T05:13:58;9.49;95.02
76345;DHT22;65160;50.504;3.666;2022-11-15T05:16:24;9.41;95.27
76345;DHT22;65160;50.504;3.666;2022-11-15T05:18:53;9.31;95.51
76345;DHT22;65160;50.504;3.666;2022-11-15T05:21:19;9.20;95.83
76345;DHT22;65160;50.504;3.666;2022-11-15T05:23:44;9.11;96.09
76345;DHT22;65160;50.504;3.666;2022-11-15T05:26:10;9.13;96.17
76345;DHT22;65160;50.504;3.666;2022-11-15T05:28:36;9.11;96.03
76345;DHT22;65160;50.504;3.666;2022-11-15T05:31:11;9.09;95.98
76345;DHT22;65160;50.504;3.666;2022-11-15T05:33:38;9.11;95.88
76345;DHT22;65160;50.504;3.666;2022-11-15T05:36:09;9.09;95.78
76345;DHT22;65160;50.504;3.666;2022-11-15T05:38:37;9.04;95.72
76345;DHT22;65160;50.504;3.666;2022-11-15T05:41:03;9.00;95.88
76345;DHT22;65160;50.504;3.666;2022-11-15T05:43:30;8.97;95.95
76345;DHT22;65160;50.504;3.666;2022-11-15T05:45:57;8.90;96.09
76345;DHT22;65160;50.504;3.666;2022-11-15T05:48:24;8.83;96.12
76345;DHT22;65160;50.504;3.666;2022-11-15T05:50:49;8.89;96.37
76345;DHT22;65160;50.504;3.666;2022-11-15T05:53:18;8.94;96.23
76345;DHT22;65160;50.504;3.666;2022-11-15T05:55:44;8.89;96.08
76345;DHT22;65160;50.504;3.666;2022-11-15T05:58:10;8.84;96.29
76345;DHT22;65160;50.504;3.666;2022-11-15T06:00:36;8.84;96.41
76345;DHT22;65160;50.504;3.666;2022-11-15T06:03:01;8.82;96.56
76345;DHT22;65160;50.504;3.666;2022-11-15T06:05:27;8.83;96.41
76345;DHT22;65160;50.504;3.666;2022-11-15T06:07:52;8.86;96.37
76345;DHT22;65160;50.504;3.666;2022-11-15T06:10:17;8.80;96.43
76345;DHT22;65160;50.504;3.666;2022-11-15T06:12:43;8.77;96.40
76345;DHT22;65160;50.504;3.666;2022-11-15T06:15:08;8.69;96.44
76345;DHT22;65160;50.504;3.666;2022-11-15T06:17:34;8.69;96.46
76345;DHT22;65160;50.504;3.666;2022-11-15T06:19:59;8.68;96.28
76345;DHT22;65160;50.504;3.666;2022-11-15T06:22:25;8.66;96.40
76345;DHT22;65160;50.504;3.666;2022-11-15T06:24:50;8.71;96.31
76345;DHT22;65160;50.504;3.666;2022-11-15T06:27:16;8.64;96.33
76345;DHT22;65160;50.504;3.666;2022-11-15T06:29:41;8.65;96.12
76345;DHT22;65160;50.504;3.666;2022-11-15T06:32:06;8.65;96.11
76345;DHT22;65160;50.504;3.666;2022-11-15T06:34:32;8.65;96.10
76345;DHT22;65160;50.504;3.666;2022-11-15T06:36:57;8.62;96.09
76345;DHT22;65160;50.504;3.666;2022-11-15T06:39:23;8.62;96.08
76345;DHT22;65160;50.504;3.666;2022-11-15T06:41:48;8.65;96.06
76345;DHT22;65160;50.504;3.666;2022-11-15T06:44:13;8.69;96.11
76345;DHT22;65160;50.504;3.666;2022-11-15T06:46:39;8.69;95.88
76345;DHT22;65160;50.504;3.666;2022-11-15T06:49:04;8.73;95.66
76345;DHT22;65160;50.504;3.666;2022-11-15T06:51:30;8.71;95.64
76345;DHT22;65160;50.504;3.666;2022-11-15T06:53:55;8.66;95.78
76345;DHT22;65160;50.504;3.666;2022-11-15T06:56:20;8.66;95.66
76345;DHT22;65160;50.504;3.666;2022-11-15T06:58:46;8.65;95.59
76345;DHT22;65160;50.504;3.666;2022-11-15T07:01:12;8.61;95.61
76345;DHT22;65160;50.504;3.666;2022-11-15T07:03:40;8.65;95.44
76345;DHT22;65160;50.504;3.666;2022-11-15T07:06:05;8.58;95.36
76345;DHT22;65160;50.504;3.666;2022-11-15T07:08:31;8.55;95.39
76345;DHT22;65160;50.504;3.666;2022-11-15T07:11:02;8.58;95.25
76345;DHT22;65160;50.504;3.666;2022-11-15T07:13:29;8.59;94.99
76345;DHT22;65160;50.504;3.666;2022-11-15T07:15:58;8.61;94.90
76345;DHT22;65160;50.504;3.666;2022-11-15T07:18:23;8.56;94.95
76345;DHT22;65160;50.504;3.666;2022-11-15T07:20:49;8.56;94.73
76345;DHT22;65160;50.504;3.666;2022-11-15T07:23:14;8.58;94.53
76345;DHT22;65160;50.504;3.666;2022-11-15T07:25:40;8.52;94.68
76345;DHT22;65160;50.504;3.666;2022-11-15T07:28:05;8.55;94.73
76345;DHT22;65160;50.504;3.666;2022-11-15T07:30:30;8.64;94.19
76345;DHT22;65160;50.504;3.666;2022-11-15T07:32:57;8.62;94.18
76345;DHT22;65160;50.504;3.666;2022-11-15T07:35:24;8.65;93.84
76345;DHT22;65160;50.504;3.666;2022-11-15T07:38:00;8.73;93.40
76345;DHT22;65160;50.504;3.666;2022-11-15T07:40:31;8.82;92.71
76345;DHT22;65160;50.504;3.666;2022-11-15T07:43:05;8.89;92.65
76345;DHT22;65160;50.504;3.666;2022-11-15T07:45:32;8.90;92.52
76345;DHT22;65160;50.504;3.666;2022-11-15T07:48:00;8.83;92.62
76345;DHT22;65160;50.504;3.666;2022-11-15T07:50:27;8.89;92.30
76345;DHT22;65160;50.504;3.666;2022-11-15T07:52:58;8.92;92.35
76345;DHT22;65160;50.504;3.666;2022-11-15T07:55:26;8.93;92.21
76345;DHT22;65160;50.504;3.666;2022-11-15T07:57:52;8.99;91.69
76345;DHT22;65160;50.504;3.666;2022-11-15T08:00:18;9.04;91.39
76345;DHT22;65160;50.504;3.666;2022-11-15T08:02:45;9.09;91.20
76345;DHT22;65160;50.504;3.666;2022-11-15T08:05:10;9.06;91.44
76345;DHT22;65160;50.504;3.666;2022-11-15T08:07:36;9.02;91.41
76345;DHT22;65160;50.504;3.666;2022-11-15T08:10:03;8.99;91.63
76345;DHT22;65160;50.504;3.666;2022-11-15T08:12:31;9.02;91.36
76345;DHT22;65160;50.504;3.666;2022-11-15T08:14:56;9.04;91.09
76345;DHT22;65160;50.504;3.666;2022-11-15T08:17:25;9.00;91.07
76345;DHT22;65160;50.504;3.666;2022-11-15T08:19:51;9.03;91.03
76345;DHT22;65160;50.504;3.666;2022-11-15T08:22:17;9.04;90.88
76345;DHT22;65160;50.504;3.666;2022-11-15T08:24:43;9.06;90.87
76345;DHT22;65160;50.504;3.666;2022-11-15T08:27:08;9.02;91.10
76345;DHT22;65160;50.504;3.666;2022-11-15T08:29:43;9.14;90.44
76345;DHT22;65160;50.504;3.666;2022-11-15T08:32:10;9.27;90.10
76345;DHT22;65160;50.504;3.666;2022-11-15T08:34:36;9.37;89.90
76345;DHT22;65160;50.504;3.666;2022-11-15T08:37:02;9.49;89.31
76345;DHT22;65160;50.504;3.666;2022-11-15T08:39:27;9.65;88.54
76345;DHT22;65160;50.504;3.666;2022-11-15T08:41:52;9.76;87.69
76345;DHT22;65160;50.504;3.666;2022-11-15T08:44:18;10.00;87.05
76345;DHT22;65160;50.504;3.666;2022-11-15T08:46:45;10.16;86.74
76345;DHT22;65160;50.504;3.666;2022-11-15T08:49:11;10.24;86.46
76345;DHT22;65160;50.504;3.666;2022-11-15T08:51:36;10.20;86.00
76345;DHT22;65160;50.504;3.666;2022-11-15T08:54:02;10.17;86.19
76345;DHT22;65160;50.504;3.666;2022-11-15T08:56:27;10.18;86.33
76345;DHT22;65160;50.504;3.666;2022-11-15T08:58:52;10.20;86.04
76345;DHT22;65160;50.504;3.666;2022-11-15T09:01:19;10.31;85.76
76345;DHT22;65160;50.504;3.666;2022-11-15T09:03:45;10.21;85.70
76345;DHT22;65160;50.504;3.666;2022-11-15T09:06:11;10.27;85.28
76345;DHT22;65160;50.504;3.666;2022-11-15T09:08:36;10.27;85.46
76345;DHT22;65160;50.504;3.666;2022-11-15T09:11:04;10.29;85.05
76345;DHT22;65160;50.504;3.666;2022-11-15T09:13:29;10.33;84.87
76345;DHT22;65160;50.504;3.666;2022-11-15T09:16:01;10.38;84.93
76345;DHT22;65160;50.504;3.666;2022-11-15T09:18:27;10.38;84.86
76345;DHT22;65160;50.504;3.666;2022-11-15T09:20:57;10.41;84.74
76345;DHT22;65160;50.504;3.666;2022-11-15T09:23:23;10.47;84.41
76345;DHT22;65160;50.504;3.666;2022-11-15T09:25:49;10.55;84.41
76345;DHT22;65160;50.504;3.666;2022-11-15T09:28:15;10.64;83.93
76345;DHT22;65160;50.504;3.666;2022-11-15T09:30:40;10.68;83.90
76345;DHT22;65160;50.504;3.666;2022-11-15T09:33:10;10.75;83.59
76345;DHT22;65160;50.504;3.666;2022-11-15T09:35:36;10.79;83.80
76345;DHT22;65160;50.504;3.666;2022-11-15T09:38:03;10.88;83.59
76345;DHT22;65160;50.504;3.666;2022-11-15T09:40:30;10.97;83.31
76345;DHT22;65160;50.504;3.666;2022-11-15T09:48:59;11.17;82.07
76345;DHT22;65160;50.504;3.666;2022-11-15T09:51:30;11.19;81.45
76345;DHT22;65160;50.504;3.666;2022-11-15T09:56:42;11.33;82.72
76345;DHT22;65160;50.504;3.666;2022-11-15T10:04:33;11.50;80.91
76345;DHT22;65160;50.504;3.666;2022-11-15T10:09:31;11.70;80.61
76345;DHT22;65160;50.504;3.666;2022-11-15T10:11:59;11.81;80.32
76345;DHT22;65160;50.504;3.666;2022-11-15T10:14:27;11.90;80.28
76345;DHT22;65160;50.504;3.666;2022-11-15T10:20:00;11.90;79.66
76345;DHT22;65160;50.504;3.666;2022-11-15T10:25:19;11.98;79.06
76345;DHT22;65160;50.504;3.666;2022-11-15T10:27:52;12.06;79.30
76345;DHT22;65160;50.504;3.666;2022-11-15T10:30:18;12.13;79.13
76345;DHT22;65160;50.504;3.666;2022-11-15T10:32:45;12.26;79.28
76345;DHT22;65160;50.504;3.666;2022-11-15T10:37:42;12.19;78.28
76345;DHT22;65160;50.504;3.666;2022-11-15T10:40:23;12.23;78.93
76345;DHT22;65160;50.504;3.666;2022-11-15T10:43:13;12.16;78.43
76345;DHT22;65160;50.504;3.666;2022-11-15T10:45:39;12.13;78.82
76345;DHT22;65160;50.504;3.666;2022-11-15T10:50:46;12.05;79.29
76345;DHT22;65160;50.504;3.666;2022-11-15T10:53:29;11.99;79.55
76345;DHT22;65160;50.504;3.666;2022-11-15T10:55:59;11.99;79.96
76345;DHT22;65160;50.504;3.666;2022-11-15T10:58:33;11.95;79.96
76345;DHT22;65160;50.504;3.666;2022-11-15T11:01:20;11.96;79.98
76345;DHT22;65160;50.504;3.666;2022-11-15T11:04:04;12.03;80.29
76345;DHT22;65160;50.504;3.666;2022-11-15T11:06:30;12.13;80.84
76345;DHT22;65160;50.504;3.666;2022-11-15T11:09:03;12.12;80.09
76345;DHT22;65160;50.504;3.666;2022-11-15T11:11:46;12.10;80.90
76345;DHT22;65160;50.504;3.666;2022-11-15T11:14:13;12.15;80.18
76345;DHT22;65160;50.504;3.666;2022-11-15T11:16:50;12.16;80.63
76345;DHT22;65160;50.504;3.666;2022-11-15T11:22:24;12.09;80.77
76345;DHT22;65160;50.504;3.666;2022-11-15T11:31:05;12.05;80.97
76345;DHT22;65160;50.504;3.666;2022-11-15T11:33:44;12.06;81.12
76345;DHT22;65160;50.504;3.666;2022-11-15T11:36:36;12.06;82.23
76345;DHT22;65160;50.504;3.666;2022-11-15T11:45:25;12.10;81.10
76345;DHT22;65160;50.504;3.666;2022-11-15T11:50:29;12.13;80.81
76345;DHT22;65160;50.504;3.666;2022-11-15T11:53:11;12.12;81.17
76345;DHT22;65160;50.504;3.666;2022-11-15T11:55:47;12.17;81.26
76345;DHT22;65160;50.504;3.666;2022-11-15T11:58:21;12.17;81.28
76345;DHT22;65160;50.504;3.666;2022-11-15T12:00:54;12.20;81.64
76345;DHT22;65160;50.504;3.666;2022-11-15T12:06:36;12.25;81.49
76345;DHT22;65160;50.504;3.666;2022-11-15T12:09:20;12.30;81.55
76345;DHT22;65160;50.504;3.666;2022-11-15T12:12:45;12.34;81.19
76345;DHT22;65160;50.504;3.666;2022-11-15T12:15:56;12.43;81.00
76345;DHT22;65160;50.504;3.666;2022-11-15T12:18:15;12.47;80.76
76345;DHT22;65160;50.504;3.666;2022-11-15T12:21:21;12.48;80.29
76345;DHT22;65160;50.504;3.666;2022-11-15T12:23:45;12.53;80.71
76345;DHT22;65160;50.504;3.666;2022-11-15T12:26:19;12.50;80.55
76345;DHT22;65160;50.504;3.666;2022-11-15T12:28:58;12.51;80.34
76345;DHT22;65160;50.504;3.666;2022-11-15T12:31:37;12.54;79.62
76345;DHT22;65160;50.504;3.666;2022-11-15T12:34:15;12.58;80.31
76345;DHT22;65160;50.504;3.666;2022-11-15T12:36:54;12.57;79.83
76345;DHT22;65160;50.504;3.666;2022-11-15T12:39:20;12.54;79.94
76345;DHT22;65160;50.504;3.666;2022-11-15T12:47:22;12.50;80.09
76345;DHT22;65160;50.504;3.666;2022-11-15T12:49:49;12.50;80.63
76345;DHT22;65160;50.504;3.666;2022-11-15T12:52:15;12.46;81.57
76345;DHT22;65160;50.504;3.666;2022-11-15T13:02:29;12.54;79.93
76345;DHT22;65160;50.504;3.666;2022-11-15T13:17:43;12.44;80.41
76345;DHT22;65160;50.504;3.666;2022-11-15T13:30:34;11.81;85.57
76345;DHT22;65160;50.504;3.666;2022-11-15T13:33:13;11.77;86.66
76345;DHT22;65160;50.504;3.666;2022-11-15T13:35:41;11.64;87.40
76345;DHT22;65160;50.504;3.666;2022-11-15T13:38:19;11.57;89.04
76345;DHT22;65160;50.504;3.666;2022-11-15T13:40:50;11.53;89.36
76345;DHT22;65160;50.504;3.666;2022-11-15T13:46:27;11.47;90.59
76345;DHT22;65160;50.504;3.666;2022-11-15T13:49:05;11.38;90.71
76345;DHT22;65160;50.504;3.666;2022-11-15T13:51:35;11.31;91.54
76345;DHT22;65160;50.504;3.666;2022-11-15T13:54:08;11.30;91.99
76345;DHT22;65160;50.504;3.666;2022-11-15T13:56:35;11.27;92.42
76345;DHT22;65160;50.504;3.666;2022-11-15T13:59:20;11.27;92.35
76345;DHT22;65160;50.504;3.666;2022-11-15T14:01:48;11.24;92.85
76345;DHT22;65160;50.504;3.666;2022-11-15T14:04:18;11.23;92.79
76345;DHT22;65160;50.504;3.666;2022-11-15T14:06:47;11.17;93.47
76345;DHT22;65160;50.504;3.666;2022-11-15T14:09:31;11.15;94.15
76345;DHT22;65160;50.504;3.666;2022-11-15T14:12:01;11.13;94.42
76345;DHT22;65160;50.504;3.666;2022-11-15T14:14:28;11.16;94.58
76345;DHT22;65160;50.504;3.666;2022-11-15T14:16:56;11.17;94.85
76345;DHT22;65160;50.504;3.666;2022-11-15T14:22:13;11.17;94.90
76345;DHT22;65160;50.504;3.666;2022-11-15T14:24:42;11.17;95.32
76345;DHT22;65160;50.504;3.666;2022-11-15T14:27:25;11.15;95.86
76345;DHT22;65160;50.504;3.666;2022-11-15T14:29:52;11.13;96.00
76345;DHT22;65160;50.504;3.666;2022-11-15T14:32:20;11.17;96.05
76345;DHT22;65160;50.504;3.666;2022-11-15T14:34:47;11.12;96.43
76345;DHT22;65160;50.504;3.666;2022-11-15T14:37:33;11.17;96.70
76345;DHT22;65160;50.504;3.666;2022-11-15T14:40:01;11.23;96.66
76345;DHT22;65160;50.504;3.666;2022-11-15T14:42:26;11.24;96.66
76345;DHT22;65160;50.504;3.666;2022-11-15T14:44:52;11.24;96.64
76345;DHT22;65160;50.504;3.666;2022-11-15T14:47:18;11.20;97.18
76345;DHT22;65160;50.504;3.666;2022-11-15T14:49:43;11.22;97.04
76345;DHT22;65160;50.504;3.666;2022-11-15T14:52:29;11.27;96.98
76345;DHT22;65160;50.504;3.666;2022-11-15T14:54:55;11.27;96.93
76345;DHT22;65160;50.504;3.666;2022-11-15T14:57:21;11.31;96.92
76345;DHT22;65160;50.504;3.666;2022-11-15T14:59:47;11.31;96.89
76345;DHT22;65160;50.504;3.666;2022-11-15T15:02:26;11.33;97.19
76345;DHT22;65160;50.504;3.666;2022-11-15T15:04:52;11.33;97.27
76345;DHT22;65160;50.504;3.666;2022-11-15T15:07:19;11.35;97.47
76345;DHT22;65160;50.504;3.666;2022-11-15T15:09:45;11.35;97.24
76345;DHT22;65160;50.504;3.666;2022-11-15T15:12:21;11.34;97.41
76345;DHT22;65160;50.504;3.666;2022-11-15T15:14:48;11.40;97.54
76345;DHT22;65160;50.504;3.666;2022-11-15T15:17:14;11.38;97.70
76345;DHT22;65160;50.504;3.666;2022-11-15T15:19:40;11.40;97.30
76345;DHT22;65160;50.504;3.666;2022-11-15T15:22:08;11.43;97.59
76345;DHT22;65160;50.504;3.666;2022-11-15T15:24:34;11.41;97.59
76345;DHT22;65160;50.504;3.666;2022-11-15T15:26:59;11.43;97.51
76345;DHT22;65160;50.504;3.666;2022-11-15T15:29:25;11.45;97.37
76345;DHT22;65160;50.504;3.666;2022-11-15T15:31:50;11.47;97.26
76345;DHT22;65160;50.504;3.666;2022-11-15T15:34:15;11.48;97.43
76345;DHT22;65160;50.504;3.666;2022-11-15T15:36:41;11.41;97.40
76345;DHT22;65160;50.504;3.666;2022-11-15T15:39:10;11.45;97.52
76345;DHT22;65160;50.504;3.666;2022-11-15T15:41:36;11.43;97.66
76345;DHT22;65160;50.504;3.666;2022-11-15T15:44:01;11.44;97.58
76345;DHT22;65160;50.504;3.666;2022-11-15T15:46:27;11.47;97.72
76345;DHT22;65160;50.504;3.666;2022-11-15T15:48:52;11.43;97.69
76345;DHT22;65160;50.504;3.666;2022-11-15T15:51:18;11.44;97.52
76345;DHT22;65160;50.504;3.666;2022-11-15T15:53:43;11.43;97.80
76345;DHT22;65160;50.504;3.666;2022-11-15T15:56:08;11.48;97.66
76345;DHT22;65160;50.504;3.666;2022-11-15T15:58:34;11.51;97.75
76345;DHT22;65160;50.504;3.666;2022-11-15T16:01:00;11.48;97.33
76345;DHT22;65160;50.504;3.666;2022-11-15T16:03:26;11.55;96.94
76345;DHT22;65160;50.504;3.666;2022-11-15T16:05:52;11.53;97.14
76345;DHT22;65160;50.504;3.666;2022-11-15T16:08:24;11.50;97.54
76345;DHT22;65160;50.504;3.666;2022-11-15T16:10:52;11.47;97.76
76345;DHT22;65160;50.504;3.666;2022-11-15T16:13:18;11.47;97.71
76345;DHT22;65160;50.504;3.666;2022-11-15T16:15:44;11.51;97.52
76345;DHT22;65160;50.504;3.666;2022-11-15T16:18:15;11.51;97.62
76345;DHT22;65160;50.504;3.666;2022-11-15T16:20:42;11.54;97.51
76345;DHT22;65160;50.504;3.666;2022-11-15T16:23:12;11.54;97.60
76345;DHT22;65160;50.504;3.666;2022-11-15T16:25:43;11.51;97.58
76345;DHT22;65160;50.504;3.666;2022-11-15T16:30:49;11.53;97.72
76345;DHT22;65160;50.504;3.666;2022-11-15T16:33:14;11.50;97.92
76345;DHT22;65160;50.504;3.666;2022-11-15T16:35:42;11.50;98.16
76345;DHT22;65160;50.504;3.666;2022-11-15T16:38:14;11.48;98.24
76345;DHT22;65160;50.504;3.666;2022-11-15T16:40:39;11.50;98.38
76345;DHT22;65160;50.504;3.666;2022-11-15T16:43:05;11.48;98.47
76345;DHT22;65160;50.504;3.666;2022-11-15T16:45:33;11.47;98.45
76345;DHT22;65160;50.504;3.666;2022-11-15T16:47:59;11.45;98.60
76345;DHT22;65160;50.504;3.666;2022-11-15T16:50:26;11.44;98.50
76345;DHT22;65160;50.504;3.666;2022-11-15T16:52:57;11.44;98.61
76345;DHT22;65160;50.504;3.666;2022-11-15T16:55:25;11.45;98.49
76345;DHT22;65160;50.504;3.666;2022-11-15T16:57:51;11.53;98.39
76345;DHT22;65160;50.504;3.666;2022-11-15T17:00:17;11.48;98.38
76345;DHT22;65160;50.504;3.666;2022-11-15T17:02:44;11.47;98.54
76345;DHT22;65160;50.504;3.666;2022-11-15T17:05:11;11.53;98.44
76345;DHT22;65160;50.504;3.666;2022-11-15T17:07:38;11.51;98.46
76345;DHT22;65160;50.504;3.666;2022-11-15T17:10:04;11.54;98.36
76345;DHT22;65160;50.504;3.666;2022-11-15T17:12:29;11.54;98.30
76345;DHT22;65160;50.504;3.666;2022-11-15T17:14:55;11.58;98.23
76345;DHT22;65160;50.504;3.666;2022-11-15T17:17:21;11.57;98.40
76345;DHT22;65160;50.504;3.666;2022-11-15T17:19:47;11.60;97.77
76345;DHT22;65160;50.504;3.666;2022-11-15T17:22:12;11.60;98.09
76345;DHT22;65160;50.504;3.666;2022-11-15T17:24:38;11.67;97.96
76345;DHT22;65160;50.504;3.666;2022-11-15T17:27:03;11.61;98.00
76345;DHT22;65160;50.504;3.666;2022-11-15T17:29:29;11.68;98.00
76345;DHT22;65160;50.504;3.666;2022-11-15T17:31:54;11.68;97.96
76345;DHT22;65160;50.504;3.666;2022-11-15T17:34:20;11.65;98.01
76345;DHT22;65160;50.504;3.666;2022-11-15T17:36:45;11.68;98.07
76345;DHT22;65160;50.504;3.666;2022-11-15T17:39:11;11.68;98.00
76345;DHT22;65160;50.504;3.666;2022-11-15T17:41:37;11.72;97.83
76345;DHT22;65160;50.504;3.666;2022-11-15T17:44:02;11.75;97.72
76345;DHT22;65160;50.504;3.666;2022-11-15T17:46:28;11.74;97.70
76345;DHT22;65160;50.504;3.666;2022-11-15T17:48:54;11.72;98.06
76345;DHT22;65160;50.504;3.666;2022-11-15T17:51:20;11.75;97.93